createdAt,value
2019-02-04T00:00:29.214Z,16.50
2019-02-04T00:01:29.199Z,17.70
2019-02-04T00:02:29.168Z,18.80
2019-02-04T00:03:29.150Z,15.10
2019-02-04T00:04:30.651Z,15.40
2019-02-04T00:05:29.105Z,19.90
2019-02-04T00:06:29.075Z,15.30
2019-02-04T00:07:29.050Z,17.40
2019-02-04T00:08:29.028Z,17.20
2019-02-04T00:09:29.012Z,17.00
2019-02-04T00:10:28.979Z,15.30
2019-02-04T00:11:28.958Z,15.80
2019-02-04T00:12:28.932Z,17.80
2019-02-04T00:13:28.911Z,17.90
2019-02-04T00:14:28.883Z,16.60
2019-02-04T00:15:28.861Z,19.40
2019-02-04T00:16:28.837Z,17.50
2019-02-04T00:17:28.814Z,17.10
2019-02-04T00:18:28.791Z,18.60
2019-02-04T00:19:28.763Z,15.50
2019-02-04T00:20:28.743Z,18.90
2019-02-04T00:21:28.726Z,17.90
2019-02-04T00:22:28.688Z,18.40
2019-02-04T00:23:28.669Z,16.30
2019-02-04T00:24:28.644Z,16.80
2019-02-04T00:25:28.622Z,16.40
2019-02-04T00:26:28.601Z,16.30
2019-02-04T00:27:28.570Z,16.10
2019-02-04T00:28:28.544Z,19.20
2019-02-04T00:29:28.523Z,17.90
2019-02-04T00:30:28.507Z,18.60
2019-02-04T00:31:28.475Z,16.60
2019-02-04T00:32:28.453Z,19.20
2019-02-04T00:33:28.429Z,18.70
2019-02-04T00:34:28.404Z,21.90
2019-02-04T00:35:28.498Z,20.90
2019-02-04T00:36:28.365Z,18.30
2019-02-04T00:37:28.358Z,21.30
2019-02-04T00:38:28.306Z,21.10
2019-02-04T00:39:28.283Z,19.10
2019-02-04T00:40:28.260Z,17.30
2019-02-04T00:41:28.236Z,18.90
2019-02-04T00:42:28.213Z,19.40
2019-02-04T00:43:28.193Z,19.90
2019-02-04T00:44:28.171Z,22.00
2019-02-04T00:45:28.154Z,18.00
2019-02-04T00:46:28.115Z,20.90
2019-02-04T00:47:28.097Z,19.20
2019-02-04T00:48:28.071Z,21.10
2019-02-04T00:49:28.050Z,18.00
2019-02-04T00:50:28.019Z,18.10
2019-02-04T00:51:27.997Z,18.00
2019-02-04T00:52:27.974Z,21.30
2019-02-04T00:53:27.954Z,17.80
2019-02-04T00:54:27.924Z,22.10
2019-02-04T00:55:27.900Z,18.70
2019-02-04T00:56:27.877Z,20.20
2019-02-04T00:57:27.852Z,18.80
2019-02-04T00:58:27.825Z,19.70
2019-02-04T00:59:27.802Z,21.50
2019-02-04T01:00:27.785Z,19.10
2019-02-04T01:01:27.759Z,20.60
2019-02-04T01:02:27.730Z,18.40
2019-02-04T01:03:27.711Z,21.50
2019-02-04T01:04:27.691Z,18.90
2019-02-04T01:05:27.667Z,19.80
2019-02-04T01:06:27.631Z,19.10
2019-02-04T01:07:27.612Z,20.00
2019-02-04T01:08:27.582Z,18.90
2019-02-04T01:09:27.573Z,21.30
2019-02-04T01:10:27.537Z,17.40
2019-02-04T01:11:27.515Z,21.80
2019-02-04T01:12:27.493Z,18.30
2019-02-04T01:13:27.467Z,20.90
2019-02-04T01:14:27.437Z,19.70
2019-02-04T01:15:27.414Z,20.00
2019-02-04T01:16:27.392Z,20.50
2019-02-04T01:17:27.369Z,19.80
2019-02-04T01:18:27.341Z,21.80
2019-02-04T01:19:27.325Z,21.70
2019-02-04T01:20:27.294Z,19.50
2019-02-04T01:21:27.278Z,22.30
2019-02-04T01:22:27.243Z,21.10
2019-02-04T01:23:27.221Z,22.50
2019-02-04T01:24:27.218Z,21.30
2019-02-04T01:25:27.173Z,20.50
2019-02-04T01:26:27.148Z,22.50
2019-02-04T01:27:27.124Z,20.10
2019-02-04T01:28:27.100Z,20.90
2019-02-04T01:29:27.074Z,21.20
2019-02-04T01:30:27.048Z,20.90
2019-02-04T01:31:27.026Z,22.70
2019-02-04T01:32:27.000Z,20.90
2019-02-04T01:33:26.979Z,23.70
2019-02-04T01:34:26.968Z,21.30
2019-02-04T01:35:26.927Z,20.60
2019-02-04T01:36:26.904Z,23.80
2019-02-04T01:37:26.879Z,23.80
2019-02-04T01:38:26.856Z,23.30
2019-02-04T01:39:26.832Z,21.90
2019-02-04T01:40:26.808Z,22.20
2019-02-04T01:41:26.786Z,22.00
2019-02-04T01:42:26.843Z,23.00
2019-02-04T01:43:26.814Z,21.60
2019-02-04T01:44:26.710Z,24.70
2019-02-04T01:45:26.689Z,22.60
2019-02-04T01:46:26.661Z,24.30
2019-02-04T01:47:26.639Z,22.60
2019-02-04T01:48:26.621Z,21.20
2019-02-04T01:49:26.587Z,21.50
2019-02-04T01:50:26.568Z,21.80
2019-02-04T01:51:26.591Z,20.10
2019-02-04T01:52:26.521Z,22.00
2019-02-04T01:53:26.500Z,23.30
2019-02-04T01:54:26.475Z,22.00
2019-02-04T01:55:26.442Z,22.90
2019-02-04T01:56:26.421Z,24.10
2019-02-04T01:57:26.396Z,23.10
2019-02-04T01:58:26.380Z,25.30
2019-02-04T01:59:26.341Z,28.80
2019-02-04T02:00:26.318Z,24.40
2019-02-04T02:01:26.298Z,23.60
2019-02-04T02:02:26.270Z,25.20
2019-02-04T02:03:26.258Z,23.80
2019-02-04T02:04:26.228Z,22.50
2019-02-04T02:05:26.197Z,28.00
2019-02-04T02:06:26.173Z,25.50
2019-02-04T02:07:26.150Z,23.70
2019-02-04T02:08:26.125Z,25.80
2019-02-04T02:09:26.111Z,24.40
2019-02-04T02:10:26.074Z,29.10
2019-02-04T02:11:26.053Z,22.80
2019-02-04T02:12:26.026Z,28.00
2019-02-04T02:13:26.003Z,26.70
2019-02-04T02:14:25.997Z,26.10
2019-02-04T02:15:25.953Z,26.10
2019-02-04T02:16:25.928Z,24.90
2019-02-04T02:17:26.812Z,25.00
2019-02-04T02:18:26.229Z,24.10
2019-02-04T02:19:25.855Z,24.20
2019-02-04T02:20:25.832Z,27.20
2019-02-04T02:21:25.806Z,24.90
2019-02-04T02:22:25.782Z,28.10
2019-02-04T02:23:25.764Z,24.60
2019-02-04T02:24:25.735Z,23.70
2019-02-04T02:25:25.710Z,26.90
2019-02-04T02:26:25.684Z,26.30
2019-02-04T02:27:25.660Z,22.70
2019-02-04T02:28:25.639Z,25.30
2019-02-04T02:29:25.623Z,28.40
2019-02-04T02:30:25.589Z,28.80
2019-02-04T02:31:25.568Z,28.40
2019-02-04T02:32:25.546Z,26.20
2019-02-04T02:33:25.522Z,24.80
2019-02-04T02:34:25.497Z,25.00
2019-02-04T02:35:25.465Z,29.30
2019-02-04T02:36:25.446Z,24.60
2019-02-04T02:37:25.423Z,28.30
2019-02-04T02:38:25.394Z,28.40
2019-02-04T02:39:25.378Z,27.20
2019-02-04T02:40:25.345Z,27.20
2019-02-04T02:41:25.374Z,23.50
2019-02-04T02:42:25.294Z,27.60
2019-02-04T02:43:25.275Z,27.40
2019-02-04T02:44:25.247Z,23.30
2019-02-04T02:45:25.218Z,28.00
2019-02-04T02:46:25.194Z,28.50
2019-02-04T02:47:25.174Z,27.90
2019-02-04T02:48:25.290Z,27.30
2019-02-04T02:49:25.121Z,27.50
2019-02-04T02:50:25.100Z,27.70
2019-02-04T02:51:25.071Z,27.00
2019-02-04T02:52:25.051Z,26.40
2019-02-04T02:53:25.025Z,29.10
2019-02-04T02:54:25.001Z,28.00
2019-02-04T02:55:24.976Z,27.80
2019-02-04T02:56:24.949Z,27.70
2019-02-04T02:57:24.923Z,26.10
2019-02-04T02:58:24.899Z,29.90
2019-02-04T02:59:24.882Z,29.40
2019-02-04T03:00:24.855Z,29.10
2019-02-04T03:01:24.827Z,30.90
2019-02-04T03:02:24.802Z,30.90
2019-02-04T03:03:24.780Z,31.30
2019-02-04T03:04:24.756Z,28.40
2019-02-04T03:05:24.729Z,32.00
2019-02-04T03:06:24.708Z,27.60
2019-02-04T03:07:24.685Z,29.70
2019-02-04T03:08:24.655Z,34.60
2019-02-04T03:09:24.633Z,27.40
2019-02-04T03:10:24.612Z,27.00
2019-02-04T03:11:24.586Z,26.50
2019-02-04T03:12:24.563Z,32.20
2019-02-04T03:13:24.539Z,28.50
2019-02-04T03:14:24.516Z,27.10
2019-02-04T03:15:24.485Z,29.70
2019-02-04T03:16:24.464Z,30.60
2019-02-04T03:17:24.440Z,31.20
2019-02-04T03:18:24.410Z,32.00
2019-02-04T03:19:24.387Z,33.30
2019-02-04T03:20:24.364Z,29.10
2019-02-04T03:21:24.339Z,33.20
2019-02-04T03:22:24.314Z,29.50
2019-02-04T03:23:24.290Z,33.40
2019-02-04T03:24:24.287Z,28.40
2019-02-04T03:25:24.242Z,37.70
2019-02-04T03:26:24.221Z,32.10
2019-02-04T03:27:24.191Z,33.20
2019-02-04T03:28:24.173Z,33.00
2019-02-04T03:29:24.144Z,36.60
2019-02-04T03:30:24.128Z,33.30
2019-02-04T03:31:24.096Z,35.70
2019-02-04T03:32:24.086Z,31.80
2019-02-04T03:33:24.141Z,31.60
2019-02-04T03:34:24.020Z,34.20
2019-02-04T03:35:24.000Z,33.00
2019-02-04T03:36:23.970Z,32.90
2019-02-04T03:37:23.948Z,31.70
2019-02-04T03:38:23.921Z,30.40
2019-02-04T03:39:23.899Z,35.20
2019-02-04T03:40:23.873Z,34.80
2019-02-04T03:41:23.848Z,36.00
2019-02-04T03:42:23.824Z,33.50
2019-02-04T03:43:23.798Z,34.40
2019-02-04T03:44:23.774Z,35.40
2019-02-04T03:45:23.751Z,35.20
2019-02-04T03:46:23.724Z,40.20
2019-02-04T03:47:23.703Z,34.70
2019-02-04T03:48:23.678Z,34.70
2019-02-04T03:49:23.653Z,34.10
2019-02-04T03:50:23.627Z,34.40
2019-02-04T03:51:23.603Z,37.20
2019-02-04T03:52:23.576Z,35.20
2019-02-04T03:53:23.558Z,37.70
2019-02-04T03:54:23.529Z,36.70
2019-02-04T03:55:23.503Z,34.10
2019-02-04T03:56:23.477Z,35.40
2019-02-04T03:57:23.455Z,35.10
2019-02-04T03:58:23.426Z,37.90
2019-02-04T03:59:23.408Z,35.50
2019-02-04T04:00:23.379Z,36.20
2019-02-04T04:01:23.355Z,36.30
2019-02-04T04:02:23.329Z,34.80
2019-02-04T04:03:23.303Z,36.30
2019-02-04T04:04:23.285Z,40.40
2019-02-04T04:05:23.254Z,35.90
2019-02-04T04:06:23.229Z,37.60
2019-02-04T04:07:23.206Z,43.30
2019-02-04T04:08:23.221Z,35.50
2019-02-04T04:09:23.155Z,38.20
2019-02-04T04:10:23.137Z,39.90
2019-02-04T04:11:23.114Z,35.40
2019-02-04T04:12:23.084Z,35.80
2019-02-04T04:13:23.055Z,40.70
2019-02-04T04:14:23.029Z,34.50
2019-02-04T04:15:23.012Z,41.20
2019-02-04T04:16:22.981Z,33.90
2019-02-04T04:17:22.957Z,36.90
2019-02-04T04:18:22.930Z,35.70
2019-02-04T04:19:22.910Z,36.90
2019-02-04T04:20:22.888Z,32.90
2019-02-04T04:21:22.860Z,34.30
2019-02-04T04:22:22.833Z,37.80
2019-02-04T04:23:22.809Z,38.40
2019-02-04T04:24:22.784Z,41.50
2019-02-04T04:25:22.764Z,38.50
2019-02-04T04:26:22.733Z,35.90
2019-02-04T04:27:22.708Z,32.30
2019-02-04T04:28:22.684Z,38.20
2019-02-04T04:29:22.659Z,33.30
2019-02-04T04:30:22.634Z,32.50
2019-02-04T04:31:22.608Z,36.90
2019-02-04T04:32:22.589Z,34.30
2019-02-04T04:33:22.569Z,33.90
2019-02-04T04:34:22.532Z,30.20
2019-02-04T04:35:22.514Z,38.40
2019-02-04T04:36:22.492Z,34.30
2019-02-04T04:37:22.461Z,36.70
2019-02-04T04:38:22.435Z,34.20
2019-02-04T04:39:22.410Z,34.00
2019-02-04T04:40:22.397Z,30.50
2019-02-04T04:41:22.371Z,36.80
2019-02-04T04:42:22.339Z,41.10
2019-02-04T04:43:22.314Z,33.30
2019-02-04T04:44:22.290Z,34.10
2019-02-04T04:45:22.266Z,35.20
2019-02-04T04:46:22.236Z,41.90
2019-02-04T04:47:22.211Z,33.70
2019-02-04T04:48:26.687Z,34.90
2019-02-04T04:49:22.163Z,39.50
2019-02-04T04:50:22.136Z,33.10
2019-02-04T04:51:22.111Z,40.50
2019-02-04T04:52:22.087Z,35.20
2019-02-04T04:53:22.065Z,36.40
2019-02-04T04:54:22.037Z,34.40
2019-02-04T04:55:22.013Z,37.40
2019-02-04T04:56:21.993Z,38.90
2019-02-04T04:57:21.963Z,37.60
2019-02-04T04:58:21.939Z,39.40
2019-02-04T04:59:21.918Z,43.20
2019-02-04T05:00:21.894Z,40.20
2019-02-04T05:01:21.865Z,39.80
2019-02-04T05:02:21.842Z,37.70
2019-02-04T05:03:21.816Z,42.50
2019-02-04T05:04:21.796Z,38.90
2019-02-04T05:05:21.771Z,41.80
2019-02-04T05:06:21.742Z,38.80
2019-02-04T05:07:22.018Z,38.20
2019-02-04T05:08:21.691Z,42.50
2019-02-04T05:09:21.667Z,43.00
2019-02-04T05:10:21.640Z,44.60
2019-02-04T05:11:21.627Z,40.50
2019-02-04T05:12:21.599Z,43.30
2019-02-04T05:13:21.579Z,43.10
2019-02-04T05:14:21.541Z,40.80
2019-02-04T05:15:21.528Z,41.10
2019-02-04T05:16:21.496Z,39.90
2019-02-04T05:17:21.472Z,37.10
2019-02-04T05:18:21.443Z,42.30
2019-02-04T05:19:21.417Z,43.10
2019-02-04T05:20:21.496Z,40.70
2019-02-04T05:21:21.368Z,42.20
2019-02-04T05:22:21.343Z,42.80
2019-02-04T05:23:21.320Z,48.60
2019-02-04T05:24:21.294Z,44.80
2019-02-04T05:25:21.269Z,40.60
2019-02-04T05:26:21.244Z,41.30
2019-02-04T05:27:21.221Z,42.20
2019-02-04T05:28:21.194Z,44.90
2019-02-04T05:29:21.171Z,43.00
2019-02-04T05:30:21.142Z,41.40
2019-02-04T05:31:21.120Z,41.60
2019-02-04T05:32:21.091Z,40.30
2019-02-04T05:33:21.069Z,46.70
2019-02-04T05:34:21.046Z,43.30
2019-02-04T05:35:21.021Z,42.20
2019-02-04T05:36:20.999Z,44.80
2019-02-04T05:37:20.975Z,43.80
2019-02-04T05:38:20.943Z,42.40
2019-02-04T05:39:20.931Z,42.10
2019-02-04T05:40:20.894Z,45.40
2019-02-04T05:41:20.871Z,46.20
2019-02-04T05:42:20.846Z,44.30
2019-02-04T05:43:20.822Z,46.30
2019-02-04T05:44:20.795Z,46.70
2019-02-04T05:45:20.773Z,45.80
2019-02-04T05:46:20.745Z,50.90
2019-02-04T05:47:20.729Z,44.60
2019-02-04T05:48:20.695Z,49.70
2019-02-04T05:49:20.789Z,44.70
2019-02-04T05:50:20.648Z,45.10
2019-02-04T05:51:20.620Z,45.10
2019-02-04T05:52:20.599Z,47.90
2019-02-04T05:53:20.576Z,47.90
2019-02-04T05:54:20.545Z,47.30
2019-02-04T05:55:20.672Z,47.50
2019-02-04T05:56:20.496Z,46.90
2019-02-04T05:57:20.473Z,54.60
2019-02-04T05:58:20.493Z,48.00
2019-02-04T05:59:20.421Z,48.60
2019-02-04T06:00:20.397Z,48.90
2019-02-04T06:01:20.375Z,46.50
2019-02-04T06:02:20.349Z,52.30
2019-02-04T06:03:20.322Z,46.40
2019-02-04T06:04:20.295Z,44.90
2019-02-04T06:05:20.276Z,45.70
2019-02-04T06:06:20.249Z,46.30
2019-02-04T06:07:20.244Z,51.50
2019-02-04T06:08:20.196Z,46.90
2019-02-04T06:09:20.173Z,51.10
2019-02-04T06:10:20.153Z,50.00
2019-02-04T06:11:20.122Z,49.40
2019-02-04T06:12:20.095Z,49.50
2019-02-04T06:13:20.077Z,51.70
2019-02-04T06:14:20.053Z,45.60
2019-02-04T06:15:20.020Z,49.30
2019-02-04T06:16:20.004Z,48.20
2019-02-04T06:17:19.970Z,50.60
2019-02-04T06:18:19.950Z,50.70
2019-02-04T06:19:19.920Z,51.70
2019-02-04T06:20:19.923Z,47.30
2019-02-04T06:21:19.874Z,49.00
2019-02-04T06:22:19.849Z,55.20
2019-02-04T06:23:19.820Z,51.40
2019-02-04T06:24:19.795Z,48.80
2019-02-04T06:25:19.785Z,46.60
2019-02-04T06:26:19.744Z,50.20
2019-02-04T06:27:19.784Z,52.10
2019-02-04T06:28:19.706Z,49.80
2019-02-04T06:29:19.676Z,49.50
2019-02-04T06:30:19.647Z,53.50
2019-02-04T06:31:19.626Z,51.80
2019-02-04T06:32:19.698Z,49.90
2019-02-04T06:33:19.589Z,51.60
2019-02-04T06:34:19.556Z,56.10
2019-02-04T06:35:19.520Z,53.20
2019-02-04T06:36:19.496Z,49.80
2019-02-04T06:37:19.471Z,53.90
2019-02-04T06:38:19.446Z,49.50
2019-02-04T06:39:19.422Z,47.40
2019-02-04T06:40:19.395Z,47.40
2019-02-04T06:41:19.379Z,54.00
2019-02-04T06:42:19.348Z,48.50
2019-02-04T06:43:19.318Z,49.30
2019-02-04T06:44:19.295Z,49.40
2019-02-04T06:45:19.270Z,50.50
2019-02-04T06:46:19.278Z,50.10
2019-02-04T06:47:19.223Z,49.80
2019-02-04T06:48:19.195Z,48.10
2019-02-04T06:49:19.170Z,47.60
2019-02-04T06:50:19.155Z,44.50
2019-02-04T06:51:19.119Z,47.50
2019-02-04T06:52:19.096Z,44.90
2019-02-04T06:53:19.073Z,47.20
2019-02-04T06:54:19.043Z,44.00
2019-02-04T06:55:19.025Z,46.20
2019-02-04T06:56:18.992Z,48.90
2019-02-04T06:57:18.971Z,41.00
2019-02-04T06:58:18.943Z,46.50
2019-02-04T06:59:18.918Z,45.50
2019-02-04T07:00:18.893Z,45.00
2019-02-04T07:01:18.881Z,43.30
2019-02-04T07:02:18.844Z,46.60
2019-02-04T07:03:18.817Z,48.10
2019-02-04T07:04:18.890Z,44.40
2019-02-04T07:05:18.771Z,44.60
2019-02-04T07:06:18.781Z,45.80
2019-02-04T07:07:18.724Z,46.00
2019-02-04T07:08:18.698Z,49.40
2019-02-04T07:09:18.667Z,44.90
2019-02-04T07:10:18.643Z,45.10
2019-02-04T07:11:18.650Z,48.20
2019-02-04T07:12:18.594Z,44.90
2019-02-04T07:13:18.569Z,42.90
2019-02-04T07:14:18.541Z,42.80
2019-02-04T07:15:18.517Z,44.00
2019-02-04T07:16:18.622Z,41.40
2019-02-04T07:17:18.467Z,38.90
2019-02-04T07:18:18.446Z,40.70
2019-02-04T07:19:24.431Z,41.80
2019-02-04T07:20:18.397Z,42.30
2019-02-04T07:21:21.007Z,42.00
2019-02-04T07:22:18.346Z,41.60
2019-02-04T07:23:18.324Z,37.00
2019-02-04T07:24:18.295Z,42.00
2019-02-04T07:25:18.272Z,37.70
2019-02-04T07:26:18.256Z,37.30
2019-02-04T07:27:18.222Z,40.90
2019-02-04T07:28:18.199Z,36.60
2019-02-04T07:29:18.225Z,37.10
2019-02-04T07:30:18.151Z,38.90
2019-02-04T07:31:18.124Z,36.40
2019-02-04T07:32:18.102Z,35.60
2019-02-04T07:33:18.076Z,39.40
2019-02-04T07:34:18.158Z,39.00
2019-02-04T07:35:18.035Z,33.50
2019-02-04T07:36:18.000Z,34.50
2019-02-04T07:37:17.975Z,34.70
2019-02-04T07:38:17.958Z,33.10
2019-02-04T07:39:17.932Z,37.30
2019-02-04T07:40:17.907Z,36.30
2019-02-04T07:41:17.884Z,35.40
2019-02-04T07:42:17.852Z,32.30
2019-02-04T07:43:17.947Z,32.60
2019-02-04T07:44:17.808Z,33.00
2019-02-04T07:45:17.786Z,33.80
2019-02-04T07:46:17.762Z,34.60
2019-02-04T07:47:17.738Z,30.00
2019-02-04T07:48:17.712Z,35.20
2019-02-04T07:49:17.686Z,32.30
2019-02-04T07:50:17.661Z,30.70
2019-02-04T07:51:17.638Z,32.40
2019-02-04T07:52:17.620Z,33.10
2019-02-04T07:53:17.595Z,34.80
2019-02-04T07:54:17.570Z,34.00
2019-02-04T07:55:17.543Z,30.60
2019-02-04T07:56:17.523Z,30.50
2019-02-04T07:57:17.500Z,29.10
2019-02-04T07:58:17.473Z,32.60
2019-02-04T07:59:17.453Z,28.50
2019-02-04T08:00:17.427Z,29.60
2019-02-04T08:01:17.410Z,28.90
2019-02-04T08:02:17.384Z,27.10
2019-02-04T08:03:17.362Z,29.10
2019-02-04T08:04:17.343Z,26.40
2019-02-04T08:05:17.324Z,28.60
2019-02-04T08:06:17.298Z,26.30
2019-02-04T08:07:17.282Z,24.40
2019-02-04T08:08:17.252Z,28.10
2019-02-04T08:09:17.233Z,26.90
2019-02-04T08:10:17.215Z,23.10
2019-02-04T08:11:17.191Z,23.70
2019-02-04T08:12:17.171Z,27.40
2019-02-04T08:13:17.149Z,24.00
2019-02-04T08:14:17.128Z,24.40
2019-02-04T08:15:17.115Z,23.70
2019-02-04T08:16:17.087Z,25.60
2019-02-04T08:17:17.073Z,24.70
2019-02-04T08:18:17.043Z,23.40
2019-02-04T08:19:17.020Z,21.90
2019-02-04T08:20:17.001Z,25.30
2019-02-04T08:21:16.980Z,24.30
2019-02-04T08:22:16.957Z,24.80
2019-02-04T08:23:16.939Z,24.50
2019-02-04T08:24:16.914Z,24.30
2019-02-04T08:25:16.895Z,27.80
2019-02-04T08:26:16.883Z,23.90
2019-02-04T08:27:16.850Z,23.60
2019-02-04T08:28:16.832Z,25.00
2019-02-04T08:29:16.807Z,21.30
2019-02-04T08:30:16.787Z,23.50
2019-02-04T08:31:16.766Z,25.30
2019-02-04T08:32:16.842Z,21.20
2019-02-04T08:33:16.732Z,21.20
2019-02-04T08:34:16.695Z,21.20
2019-02-04T08:35:16.773Z,24.90
2019-02-04T08:36:16.658Z,21.80
2019-02-04T08:37:16.631Z,22.20
2019-02-04T08:38:16.615Z,24.30
2019-02-04T08:39:16.595Z,21.40
2019-02-04T08:40:16.569Z,24.70
2019-02-04T08:41:16.551Z,21.30
2019-02-04T08:42:16.524Z,20.10
2019-02-04T08:43:16.503Z,21.80
2019-02-04T08:44:16.489Z,20.60
2019-02-04T08:45:16.461Z,22.10
2019-02-04T08:46:16.443Z,19.70
2019-02-04T08:47:22.894Z,23.40
2019-02-04T08:48:16.392Z,21.80
2019-02-04T08:49:16.371Z,20.00
2019-02-04T08:50:16.350Z,22.50
2019-02-04T08:51:16.326Z,18.60
2019-02-04T08:52:16.310Z,21.10
2019-02-04T08:53:16.283Z,21.30
2019-02-04T08:54:16.263Z,20.40
2019-02-04T08:55:16.240Z,18.60
2019-02-04T08:56:16.219Z,18.10
2019-02-04T08:57:16.201Z,19.10
2019-02-04T08:58:16.179Z,23.70
2019-02-04T08:59:16.157Z,20.80
2019-02-04T09:00:16.134Z,19.10
2019-02-04T09:01:16.114Z,20.90
2019-02-04T09:02:16.092Z,19.60
2019-02-04T09:03:16.084Z,21.30
2019-02-04T09:04:16.060Z,19.70
2019-02-04T09:05:16.034Z,18.30
2019-02-04T09:06:16.011Z,18.50
2019-02-04T09:07:15.996Z,17.00
2019-02-04T09:08:15.976Z,17.50
2019-02-04T09:09:15.955Z,16.20
2019-02-04T09:10:15.940Z,16.80
2019-02-04T09:11:15.916Z,17.20
2019-02-04T09:12:15.899Z,15.60
2019-02-04T09:13:15.885Z,16.30
2019-02-04T09:14:15.961Z,16.10
2019-02-04T09:15:16.403Z,16.10
2019-02-04T09:16:15.833Z,17.00
2019-02-04T09:17:15.827Z,16.60
2019-02-04T09:18:15.796Z,15.70
2019-02-04T09:19:15.769Z,16.00
2019-02-04T09:20:15.754Z,16.70
2019-02-04T09:21:15.738Z,16.50
2019-02-04T09:22:15.719Z,14.90
2019-02-04T09:23:15.696Z,14.20
2019-02-04T09:24:15.683Z,15.30
2019-02-04T09:25:15.666Z,14.10
2019-02-04T09:26:15.645Z,15.60
2019-02-04T09:27:15.630Z,15.90
2019-02-04T09:28:15.610Z,14.50
2019-02-04T09:29:15.595Z,13.70
2019-02-04T09:30:15.577Z,14.00
2019-02-04T09:31:15.553Z,14.30
2019-02-04T09:32:15.533Z,17.30
2019-02-04T09:33:15.514Z,15.20
2019-02-04T09:34:15.506Z,16.80
2019-02-04T09:35:15.481Z,14.70
2019-02-04T09:36:15.457Z,16.80
2019-02-04T09:37:15.443Z,16.20
2019-02-04T09:38:15.418Z,14.70
2019-02-04T09:39:15.399Z,15.00
2019-02-04T09:40:15.379Z,16.30
2019-02-04T09:41:15.371Z,16.10
2019-02-04T09:42:15.349Z,16.30
2019-02-04T09:43:15.322Z,16.10
2019-02-04T09:44:15.307Z,15.40
2019-02-04T09:45:15.283Z,15.80
2019-02-04T09:46:15.266Z,14.00
2019-02-04T09:47:15.251Z,14.50
2019-02-04T09:48:15.232Z,13.60
2019-02-04T09:49:15.207Z,15.40
2019-02-04T09:50:21.887Z,15.40
2019-02-04T09:51:15.171Z,14.70
2019-02-04T09:52:15.154Z,14.50
2019-02-04T09:53:15.122Z,13.60
2019-02-04T09:54:15.103Z,14.60
2019-02-04T09:55:15.088Z,13.80
2019-02-04T09:56:15.065Z,13.50
2019-02-04T09:57:15.042Z,14.30
2019-02-04T09:58:15.025Z,18.80
2019-02-04T09:59:15.002Z,12.60
2019-02-04T10:00:14.991Z,13.60
2019-02-04T10:01:14.965Z,14.30
2019-02-04T10:02:14.945Z,13.40
2019-02-04T10:03:14.926Z,13.20
2019-02-04T10:04:14.907Z,12.80
2019-02-04T10:05:14.881Z,14.20
2019-02-04T10:06:14.864Z,13.40
2019-02-04T10:07:14.840Z,13.80
2019-02-04T10:08:14.819Z,15.40
2019-02-04T10:09:14.799Z,12.30
2019-02-04T10:10:14.777Z,14.70
2019-02-04T10:11:14.762Z,13.00
2019-02-04T10:12:14.738Z,15.00
2019-02-04T10:13:14.722Z,14.60
2019-02-04T10:14:14.701Z,14.50
2019-02-04T10:15:14.679Z,13.60
2019-02-04T10:16:14.681Z,15.50
2019-02-04T10:17:14.676Z,16.50
2019-02-04T10:18:14.636Z,14.40
2019-02-04T10:19:14.631Z,12.70
2019-02-04T10:20:14.611Z,12.70
2019-02-04T10:21:14.571Z,14.40
2019-02-04T10:22:14.560Z,13.40
2019-02-04T10:23:14.555Z,14.40
2019-02-04T10:24:14.529Z,13.50
2019-02-04T10:25:14.486Z,14.30
2019-02-04T10:26:14.473Z,15.20
2019-02-04T10:27:14.431Z,14.60
2019-02-04T10:28:14.440Z,12.80
2019-02-04T10:29:14.386Z,12.80
2019-02-04T10:30:14.370Z,13.80
2019-02-04T10:31:14.373Z,14.80
2019-02-04T10:32:14.317Z,14.30
2019-02-04T10:33:14.314Z,12.60
2019-02-04T10:34:14.269Z,13.40
2019-02-04T10:35:16.923Z,14.00
2019-02-04T10:36:14.231Z,14.10
2019-02-04T10:37:14.232Z,12.60
2019-02-04T10:38:16.311Z,13.40
2019-02-04T10:39:14.163Z,14.00
2019-02-04T10:40:14.145Z,12.70
2019-02-04T10:41:14.130Z,13.40
2019-02-04T10:42:14.108Z,13.20
2019-02-04T10:43:14.080Z,13.50
2019-02-04T10:44:14.073Z,13.40
2019-02-04T10:45:14.188Z,13.30
2019-02-04T10:46:14.013Z,12.70
2019-02-04T10:47:14.022Z,12.30
2019-02-04T10:48:13.983Z,13.10
2019-02-04T10:49:13.954Z,13.20
2019-02-04T10:50:13.952Z,12.90
2019-02-04T10:51:13.901Z,14.00
2019-02-04T10:52:13.897Z,14.20
2019-02-04T10:53:13.883Z,13.40
2019-02-04T10:54:13.865Z,13.30
2019-02-04T10:55:13.819Z,12.50
2019-02-04T10:56:16.321Z,12.50
2019-02-04T10:57:13.774Z,14.00
2019-02-04T10:58:13.750Z,13.80
2019-02-04T10:59:13.759Z,13.20
2019-02-04T11:00:13.705Z,15.10
2019-02-04T11:01:13.701Z,13.90
2019-02-04T11:02:13.709Z,13.70
2019-02-04T11:03:13.676Z,12.50
2019-02-04T11:04:13.703Z,13.90
2019-02-04T11:05:13.598Z,13.50
2019-02-04T11:06:13.614Z,12.00
2019-02-04T11:07:13.619Z,13.70
2019-02-04T11:08:13.642Z,13.10
2019-02-04T11:09:13.514Z,12.50
2019-02-04T11:10:13.496Z,12.10
2019-02-04T11:11:13.510Z,13.60
2019-02-04T11:12:13.463Z,14.00
2019-02-04T11:13:13.427Z,14.90
2019-02-04T11:14:13.414Z,14.50
2019-02-04T11:15:13.382Z,13.20
2019-02-04T11:16:13.366Z,14.40
2019-02-04T11:17:13.346Z,11.30
2019-02-04T11:18:13.348Z,11.70
2019-02-04T11:19:13.308Z,11.70
2019-02-04T11:20:13.326Z,12.30
2019-02-04T11:21:13.262Z,12.00
2019-02-04T11:22:13.269Z,14.80
2019-02-04T11:23:13.234Z,12.00
2019-02-04T11:24:13.232Z,11.90
2019-02-04T11:25:13.173Z,11.60
2019-02-04T11:26:13.193Z,12.40
2019-02-04T11:27:13.172Z,11.20
2019-02-04T11:28:13.141Z,13.30
2019-02-04T11:29:13.108Z,11.30
2019-02-04T11:30:13.074Z,11.30
2019-02-04T11:31:13.088Z,11.60
2019-02-04T11:32:13.032Z,13.30
2019-02-04T11:33:13.063Z,11.70
2019-02-04T11:34:13.029Z,11.00
2019-02-04T11:35:13.032Z,11.00
2019-02-04T11:36:12.971Z,11.40
2019-02-04T11:37:12.923Z,11.10
2019-02-04T11:38:12.935Z,11.90
2019-02-04T11:39:12.908Z,11.60
2019-02-04T11:40:12.858Z,12.20
2019-02-04T11:41:12.838Z,10.90
2019-02-04T11:42:12.821Z,12.20
2019-02-04T11:43:12.888Z,10.20
2019-02-04T11:44:12.800Z,12.00
2019-02-04T11:45:12.759Z,11.70
2019-02-04T11:46:12.733Z,12.00
2019-02-04T11:47:12.729Z,12.00
2019-02-04T11:48:12.705Z,11.70
2019-02-04T11:49:12.676Z,12.60
2019-02-04T11:50:12.648Z,14.20
2019-02-04T11:51:12.626Z,13.10
2019-02-04T11:52:12.604Z,12.50
2019-02-04T11:53:12.587Z,11.00
2019-02-04T11:54:12.569Z,12.30
2019-02-04T11:55:12.542Z,11.90
2019-02-04T11:56:12.657Z,11.30
2019-02-04T11:57:12.498Z,14.10
2019-02-04T11:58:12.476Z,11.30
2019-02-04T11:59:12.456Z,11.60
2019-02-04T12:00:12.472Z,12.60
2019-02-04T12:01:12.417Z,13.40
2019-02-04T12:02:12.394Z,11.90
2019-02-04T12:03:12.369Z,13.20
2019-02-04T12:04:12.349Z,13.00
2019-02-04T12:05:12.339Z,12.00
2019-02-04T12:06:12.311Z,11.80
2019-02-04T12:07:12.294Z,12.90
2019-02-04T12:08:12.273Z,11.80
2019-02-04T12:09:12.246Z,11.90
2019-02-04T12:10:12.231Z,11.30
2019-02-04T12:11:12.207Z,11.20
2019-02-04T12:12:12.189Z,12.00
2019-02-04T12:13:12.172Z,11.50
2019-02-04T12:14:12.141Z,11.00
2019-02-04T12:15:12.121Z,12.00
2019-02-04T12:16:12.102Z,11.80
2019-02-04T12:17:12.101Z,13.80
2019-02-04T12:18:12.059Z,11.70
2019-02-04T12:19:12.039Z,11.10
2019-02-04T12:20:12.021Z,13.00
2019-02-04T12:21:21.157Z,13.40
2019-02-04T12:22:11.975Z,12.50
2019-02-04T12:23:11.956Z,13.80
2019-02-04T12:24:11.930Z,13.70
2019-02-04T12:25:11.909Z,14.10
2019-02-04T12:26:11.891Z,12.60
2019-02-04T12:27:11.869Z,11.20
2019-02-04T12:28:11.846Z,11.60
2019-02-04T12:29:11.825Z,14.10
2019-02-04T12:30:11.809Z,11.90
2019-02-04T12:31:11.788Z,14.70
2019-02-04T12:32:11.766Z,13.60
2019-02-04T12:33:11.744Z,12.80
2019-02-04T12:34:11.724Z,13.40
2019-02-04T12:35:11.699Z,11.40
2019-02-04T12:36:11.682Z,9.90
2019-02-04T12:37:11.660Z,12.10
2019-02-04T12:38:11.651Z,12.10
2019-02-04T12:39:11.617Z,12.30
2019-02-04T12:40:11.598Z,10.90
2019-02-04T12:41:11.581Z,13.00
2019-02-04T12:42:11.564Z,12.70
2019-02-04T12:43:11.531Z,12.80
2019-02-04T12:44:11.512Z,11.40
2019-02-04T12:45:11.490Z,12.60
2019-02-04T12:47:11.447Z,12.00
2019-02-04T12:48:11.435Z,10.30
2019-02-04T12:49:11.409Z,12.30
2019-02-04T12:50:11.383Z,12.70
2019-02-04T12:51:11.369Z,11.30
2019-02-04T12:52:11.344Z,12.80
2019-02-04T12:53:11.322Z,12.90